Time;durP1;ratioP1;P1;durP2;ratioP2;P2;SDS_P1;SDS_P2;PMS_P1;PMS_P2;Temp;Humidity;BMP_temperature;BMP_pressure;BME280_temperature;BME280_humidity;BME280_pressure;Samples;Min_cycle;Max_cycle;Signal;HPM_P1;HPM_P2
2023/05/13 00:02:07;;;;;;;;;;;;;;;9.94;87.24;102327.09;5075459;28;19912;-69
2023/05/13 00:04:32;;;;;;;;;;;;;;;9.94;87.81;102324.44;5075255;28;19912;-67
2023/05/13 00:06:58;;;;;;;;;;;;;;;9.92;88.40;102334.38;5074926;28;19912;-68
2023/05/13 00:09:23;;;;;;;;;;;;;;;9.93;88.75;102328.06;5075266;28;19919;-69
2023/05/13 00:11:48;;;;;;;;;;;;;;;9.92;88.86;102321.06;5075960;28;19951;-69
2023/05/13 00:14:14;;;;;;;;;;;;;;;9.89;89.69;102335.47;5077215;28;19919;-69
2023/05/13 00:16:39;;;;;;;;;;;;;;;9.88;87.67;102331.09;5076633;28;19913;-68
2023/05/13 00:19:04;;;;;;;;;;;;;;;9.87;87.54;102328.56;5076103;28;19913;-68
2023/05/13 00:21:30;;;;;;;;;;;;;;;9.85;86.71;102327.84;5075634;28;19966;-68
2023/05/13 00:23:56;;;;;;;;;;;;;;;9.84;87.92;102332.31;5075981;28;19916;-69
2023/05/13 00:26:22;;;;;;;;;;;;;;;9.82;87.37;102341.34;5075625;28;19912;-67
2023/05/13 00:28:47;;;;;;;;;;;;;;;9.79;91.81;102333.63;5075775;28;19971;-68
2023/05/13 00:31:13;;;;;;;;;;;;;;;9.78;90.51;102338.09;5074891;28;19947;-68
2023/05/13 00:33:38;;;;;;;;;;;;;;;9.78;89.97;102334.59;5075054;28;19912;-68
2023/05/13 00:36:03;;;;;;;;;;;;;;;9.76;90.88;102339.16;5074623;28;20521;-68
2023/05/13 00:38:29;;;;;;;;;;;;;;;9.77;90.96;102335.53;5074779;28;19920;-69
2023/05/13 00:40:54;;;;;;;;;;;;;;;9.77;90.54;102336.41;5074733;28;20283;-68
2023/05/13 00:43:20;;;;;;;;;;;;;;;9.78;89.94;102337.25;5074766;28;20303;-68
2023/05/13 00:45:45;;;;;;;;;;;;;;;9.75;91.37;102333.00;5073203;28;20292;-68
2023/05/13 00:48:11;;;;;;;;;;;;;;;9.71;90.99;102331.56;5074761;28;20057;-69
2023/05/13 00:50:37;;;;;;;;;;;;;;;9.71;90.95;102338.69;5074448;28;20015;-69
2023/05/13 00:53:03;;;;;;;;;;;;;;;9.70;91.70;102340.50;5074312;28;19965;-68
2023/05/13 00:55:28;;;;;;;;;;;;;;;9.69;92.01;102336.16;5074919;28;20253;-68
2023/05/13 00:57:54;;;;;;;;;;;;;;;9.69;92.26;102341.47;5074369;28;19916;-69
2023/05/13 01:00:19;;;;;;;;;;;;;;;9.69;90.73;102344.13;5074182;28;19944;-68
2023/05/13 01:03:01;;;;;;;;;;;;;;;9.68;91.24;102339.78;5074388;28;19960;-68
2023/05/13 01:05:30;;;;;;;;;;;;;;;9.65;91.69;102341.84;5073166;28;19916;-68
2023/05/13 01:08:16;;;;;;;;;;;;;;;9.68;91.44;102353.06;5074352;28;20322;-69
2023/05/13 01:10:46;;;;;;;;;;;;;;;9.71;91.98;102341.34;5074021;28;19920;-68
2023/05/13 01:13:12;;;;;;;;;;;;;;;9.74;91.72;102338.44;5074231;28;19918;-68
2023/05/13 01:15:55;;;;;;;;;;;;;;;9.76;92.15;102349.81;5073899;28;20003;-68
2023/05/13 01:18:27;;;;;;;;;;;;;;;9.80;91.39;102346.78;5075195;28;19912;-68
2023/05/13 01:20:53;;;;;;;;;;;;;;;9.86;90.18;102348.16;5074037;28;19912;-67
2023/05/13 01:23:18;;;;;;;;;;;;;;;9.92;90.34;102345.00;5074069;28;19912;-67
2023/05/13 01:25:44;;;;;;;;;;;;;;;9.98;89.45;102349.00;5073680;28;19951;-68
2023/05/13 01:28:09;;;;;;;;;;;;;;;10.05;88.11;102347.53;5073412;28;19916;-68
2023/05/13 01:30:35;;;;;;;;;;;;;;;10.09;89.65;102351.66;5073783;28;19912;-68
2023/05/13 01:33:01;;;;;;;;;;;;;;;10.14;88.19;102353.03;5073949;28;19912;-68
2023/05/13 01:35:27;;;;;;;;;;;;;;;10.17;87.86;102363.41;5073628;28;19931;-67
2023/05/13 01:37:53;;;;;;;;;;;;;;;10.19;86.44;102353.50;5072792;28;20018;-68
2023/05/13 01:40:19;;;;;;;;;;;;;;;10.21;85.70;102366.72;5073560;28;19918;-69
2023/05/13 01:42:44;;;;;;;;;;;;;;;10.21;84.95;102362.25;5073579;28;20014;-67
2023/05/13 01:45:09;;;;;;;;;;;;;;;10.24;84.68;102361.16;5074019;28;19920;-67
2023/05/13 01:47:35;;;;;;;;;;;;;;;10.27;83.99;102360.06;5073603;28;19919;-68
2023/05/13 01:50:00;;;;;;;;;;;;;;;10.30;83.25;102365.13;5073446;28;20020;-68
2023/05/13 01:52:25;;;;;;;;;;;;;;;10.33;82.81;102370.22;5073326;28;19981;-69
2023/05/13 01:54:51;;;;;;;;;;;;;;;10.36;83.28;102369.97;5073313;28;20428;-67
2023/05/13 01:57:16;;;;;;;;;;;;;;;10.40;82.22;102371.41;5073081;28;19916;-68
2023/05/13 01:59:42;;;;;;;;;;;;;;;10.46;82.39;102369.13;5073338;28;19922;-69
2023/05/13 02:02:07;;;;;;;;;;;;;;;10.52;81.38;102373.97;5073347;28;19913;-68
2023/05/13 02:04:32;;;;;;;;;;;;;;;10.59;80.65;102376.97;5073146;28;19958;-69
2023/05/13 02:06:58;;;;;;;;;;;;;;;10.61;80.71;102383.03;5073074;28;20348;-68
2023/05/13 02:09:23;;;;;;;;;;;;;;;10.62;80.38;102375.88;5072918;28;19959;-70
2023/05/13 02:11:48;;;;;;;;;;;;;;;10.60;80.53;102377.81;5072776;28;20022;-69
2023/05/13 02:14:14;;;;;;;;;;;;;;;10.56;80.93;102377.22;5072769;28;19912;-68
2023/05/13 02:16:39;;;;;;;;;;;;;;;10.53;80.45;102380.97;5072896;28;19920;-69
2023/05/13 02:19:05;;;;;;;;;;;;;;;10.52;80.49;102376.63;5072900;28;20010;-69
2023/05/13 02:21:31;;;;;;;;;;;;;;;10.51;80.82;102380.25;5072657;28;19974;-69
2023/05/13 02:23:56;;;;;;;;;;;;;;;10.49;79.90;102376.03;5072536;28;19955;-69
2023/05/13 02:26:21;;;;;;;;;;;;;;;10.47;81.02;102384.13;5072396;28;19913;-69
2023/05/13 02:28:47;;;;;;;;;;;;;;;10.48;80.80;102377.00;5072567;28;20066;-67
2023/05/13 02:31:12;;;;;;;;;;;;;;;10.50;81.19;102383.88;5071135;28;19912;-68
2023/05/13 02:33:37;;;;;;;;;;;;;;;10.53;80.88;102388.13;5072473;28;19913;-68
2023/05/13 02:36:03;;;;;;;;;;;;;;;10.60;80.57;102389.31;5072547;28;19913;-69
2023/05/13 02:38:28;;;;;;;;;;;;;;;10.67;80.57;102387.84;5072606;28;19920;-68
2023/05/13 02:40:54;;;;;;;;;;;;;;;10.70;80.41;102384.13;5072541;28;19917;-68
2023/05/13 02:43:19;;;;;;;;;;;;;;;10.70;80.87;102392.97;5072330;28;19913;-69
2023/05/13 02:45:44;;;;;;;;;;;;;;;10.73;81.11;102392.72;5072580;28;20086;-68
2023/05/13 02:48:10;;;;;;;;;;;;;;;10.76;81.07;102389.78;5072164;28;20058;-68
2023/05/13 02:50:35;;;;;;;;;;;;;;;10.78;80.78;102392.34;5072120;28;20023;-68
2023/05/13 02:53:00;;;;;;;;;;;;;;;10.77;81.24;102396.81;5072523;28;19912;-69
2023/05/13 02:55:26;;;;;;;;;;;;;;;10.78;80.80;102390.50;5072249;28;19924;-70
2023/05/13 02:57:51;;;;;;;;;;;;;;;10.80;80.80;102391.22;5072325;28;19919;-68
2023/05/13 03:00:16;;;;;;;;;;;;;;;10.85;81.10;102393.53;5072410;28;19928;-69
2023/05/13 03:02:42;;;;;;;;;;;;;;;10.94;80.58;102402.56;5072742;28;20019;-68
2023/05/13 03:05:07;;;;;;;;;;;;;;;11.37;79.22;102398.09;5072708;28;19912;-67
2023/05/13 03:07:33;;;;;;;;;;;;;;;12.70;74.48;102406.13;5072769;28;19912;-67
2023/05/13 03:09:58;;;;;;;;;;;;;;;14.43;69.06;102403.53;5072212;28;19912;-67
2023/05/13 03:12:23;;;;;;;;;;;;;;;15.77;63.32;102393.69;5072517;28;19912;-68
2023/05/13 03:14:49;;;;;;;;;;;;;;;16.77;59.83;102405.69;5072771;28;19912;-68
2023/05/13 03:17:14;;;;;;;;;;;;;;;17.53;54.56;102397.38;5072680;28;19912;-68
2023/05/13 03:19:40;;;;;;;;;;;;;;;17.88;54.88;102403.44;5072324;28;19912;-69
2023/05/13 03:22:05;;;;;;;;;;;;;;;17.11;54.95;102402.06;5072500;28;19916;-69
2023/05/13 03:24:31;;;;;;;;;;;;;;;16.65;56.55;102406.94;5072338;28;20058;-69
2023/05/13 03:26:56;;;;;;;;;;;;;;;15.86;58.41;102410.72;5072120;28;19917;-69
2023/05/13 03:29:22;;;;;;;;;;;;;;;14.96;61.36;102414.41;5072454;28;19920;-69
2023/05/13 03:31:48;;;;;;;;;;;;;;;14.36;63.85;102405.94;5072511;28;19912;-68
2023/05/13 03:34:13;;;;;;;;;;;;;;;14.36;64.71;102416.66;5072439;28;19920;-69
2023/05/13 03:36:39;;;;;;;;;;;;;;;15.48;61.95;102411.91;5072488;28;19912;-67
2023/05/13 03:39:04;;;;;;;;;;;;;;;16.32;59.02;102420.25;5072240;28;19912;-68
2023/05/13 03:41:30;;;;;;;;;;;;;;;16.09;58.85;102413.72;5072120;28;19966;-67
2023/05/13 03:43:55;;;;;;;;;;;;;;;15.50;60.31;102413.44;5077461;28;19920;-68
2023/05/13 03:46:21;;;;;;;;;;;;;;;15.37;61.17;102404.94;5087183;28;19923;-67
2023/05/13 03:48:47;;;;;;;;;;;;;;;15.54;60.43;102403.22;5081791;28;19931;-69
2023/05/13 03:51:12;;;;;;;;;;;;;;;15.42;60.95;102407.16;5073303;28;19917;-67
2023/05/13 03:53:38;;;;;;;;;;;;;;;15.22;61.22;102410.97;5072506;28;19936;-68
2023/05/13 03:56:03;;;;;;;;;;;;;;;15.26;61.71;102415.03;5072561;28;19920;-68
2023/05/13 03:58:29;;;;;;;;;;;;;;;15.53;60.80;102412.28;5072573;28;19920;-69
2023/05/13 04:00:54;;;;;;;;;;;;;;;15.78;60.19;102411.50;5072467;28;19923;-68
2023/05/13 04:03:19;;;;;;;;;;;;;;;15.32;60.11;102414.44;5076356;28;19951;-67
2023/05/13 04:05:45;;;;;;;;;;;;;;;14.82;62.08;102410.41;5076130;28;19948;-67
2023/05/13 04:08:11;;;;;;;;;;;;;;;14.37;63.73;102413.00;5075893;28;19958;-69
2023/05/13 04:10:36;;;;;;;;;;;;;;;14.01;65.15;102408.47;5074457;28;19916;-68
2023/05/13 04:13:01;;;;;;;;;;;;;;;13.90;66.15;102415.69;5075461;28;19913;-68
2023/05/13 04:15:27;;;;;;;;;;;;;;;14.78;64.35;102409.03;5075528;28;20341;-69
2023/05/13 04:17:52;;;;;;;;;;;;;;;16.67;60.90;102407.66;5075230;28;20015;-68
2023/05/13 04:20:18;;;;;;;;;;;;;;;18.38;53.87;102410.41;5074239;28;19912;-68
2023/05/13 04:22:43;;;;;;;;;;;;;;;18.94;49.89;102411.19;5075582;28;19912;-68
2023/05/13 04:25:12;;;;;;;;;;;;;;;18.75;50.60;102402.50;5074852;28;19935;-68
2023/05/13 04:27:37;;;;;;;;;;;;;;;18.76;50.18;102415.00;5075239;28;19912;-69
2023/05/13 04:30:02;;;;;;;;;;;;;;;19.48;49.13;102420.97;5074541;28;19919;-69
2023/05/13 04:32:28;;;;;;;;;;;;;;;20.44;46.52;102424.78;5074869;28;20378;-69
2023/05/13 04:34:54;;;;;;;;;;;;;;;20.88;43.83;102429.31;5074743;28;19955;-68
2023/05/13 04:37:19;;;;;;;;;;;;;;;21.04;44.22;102434.50;5074794;28;19999;-69
2023/05/13 04:39:45;;;;;;;;;;;;;;;20.93;44.21;102426.88;5074567;28;19919;-69
2023/05/13 04:42:11;;;;;;;;;;;;;;;20.16;45.67;102429.13;5074602;28;20414;-68
2023/05/13 04:44:36;;;;;;;;;;;;;;;18.55;47.60;102441.72;5074480;28;20287;-70
2023/05/13 04:47:01;;;;;;;;;;;;;;;17.03;51.61;102436.03;5074572;28;19913;-69
2023/05/13 04:49:27;;;;;;;;;;;;;;;16.01;54.79;102438.72;5073343;28;19916;-68
2023/05/13 04:51:52;;;;;;;;;;;;;;;15.34;57.70;102439.31;5074344;28;20265;-68
2023/05/13 04:54:18;;;;;;;;;;;;;;;14.92;59.68;102434.47;5074329;28;20019;-68
2023/05/13 04:56:43;;;;;;;;;;;;;;;14.66;60.95;102433.50;5074187;28;19943;-69
2023/05/13 04:59:08;;;;;;;;;;;;;;;14.51;61.87;102442.03;5074401;28;19919;-69
2023/05/13 05:01:36;;;;;;;;;;;;;;;14.59;64.40;102448.50;5074325;28;20345;-69
2023/05/13 05:04:01;;;;;;;;;;;;;;;14.72;64.12;102448.97;5074287;28;19920;-69
2023/05/13 05:06:27;;;;;;;;;;;;;;;14.93;62.39;102454.09;5072824;28;20391;-69
2023/05/13 05:08:52;;;;;;;;;;;;;;;15.42;60.70;102445.59;5073872;28;19913;-69
2023/05/13 05:11:18;;;;;;;;;;;;;;;15.60;60.56;102447.44;5073656;28;19913;-70
2023/05/13 05:13:43;;;;;;;;;;;;;;;15.67;60.46;102452.06;5074368;28;19912;-69
2023/05/13 05:16:08;;;;;;;;;;;;;;;15.82;61.79;102446.13;5073918;28;19913;-69
2023/05/13 05:18:36;;;;;;;;;;;;;;;15.82;61.34;102455.00;5073847;28;19912;-69
2023/05/13 05:21:02;;;;;;;;;;;;;;;15.83;60.96;102454.00;5073453;28;19924;-68
2023/05/13 05:23:27;;;;;;;;;;;;;;;15.98;60.87;102457.84;5074520;28;19913;-68
2023/05/13 05:25:52;;;;;;;;;;;;;;;16.07;61.07;102464.09;5074090;28;20008;-69
2023/05/13 05:28:18;;;;;;;;;;;;;;;15.89;60.92;102469.50;5072584;28;19912;-69
2023/05/13 05:30:52;;;;;;;;;;;;;;;15.67;61.02;102465.47;5073512;28;19916;-68
2023/05/13 05:33:20;;;;;;;;;;;;;;;15.52;61.37;102469.66;5071726;28;19916;-71
2023/05/13 05:35:45;;;;;;;;;;;;;;;15.49;61.19;102468.13;5072822;28;19917;-70
2023/05/13 05:38:11;;;;;;;;;;;;;;;15.37;61.00;102461.31;5073134;28;19916;-67
2023/05/13 05:40:39;;;;;;;;;;;;;;;15.30;61.87;102470.09;5072723;28;20249;-68
2023/05/13 05:43:05;;;;;;;;;;;;;;;15.32;61.64;102474.31;5073098;28;19935;-68
2023/05/13 05:45:31;;;;;;;;;;;;;;;15.28;62.10;102477.47;5071644;28;19912;-67
2023/05/13 05:47:56;;;;;;;;;;;;;;;15.29;62.45;102479.16;5072766;28;19923;-69
2023/05/13 05:50:23;;;;;;;;;;;;;;;15.30;61.92;102480.84;5072698;28;19962;-71
2023/05/13 05:52:48;;;;;;;;;;;;;;;15.30;62.41;102467.41;5072537;28;19922;-69
2023/05/13 05:55:14;;;;;;;;;;;;;;;15.30;62.44;102473.63;5072480;28;19912;-68
2023/05/13 05:57:39;;;;;;;;;;;;;;;15.34;62.61;102466.16;5072429;28;19912;-67
2023/05/13 06:00:06;;;;;;;;;;;;;;;15.39;63.28;102461.16;5072675;28;19912;-68
2023/05/13 06:02:32;;;;;;;;;;;;;;;15.41;62.44;102461.84;5074052;28;19923;-68
2023/05/13 06:04:57;;;;;;;;;;;;;;;15.48;62.19;102465.59;5072800;28;19912;-67
2023/05/13 06:07:23;;;;;;;;;;;;;;;15.53;62.24;102460.59;5072258;28;19913;-67
2023/05/13 06:09:48;;;;;;;;;;;;;;;15.53;61.60;102460.59;5072364;28;19962;-68
2023/05/13 06:12:13;;;;;;;;;;;;;;;15.50;62.06;102458.22;5071435;28;19966;-67
2023/05/13 06:14:39;;;;;;;;;;;;;;;15.51;62.56;102457.22;5072512;28;19912;-68
2023/05/13 06:17:04;;;;;;;;;;;;;;;15.59;62.53;102462.72;5072440;28;19912;-67
2023/05/13 06:19:29;;;;;;;;;;;;;;;15.63;61.80;102458.75;5072644;28;20391;-69
2023/05/13 06:21:55;;;;;;;;;;;;;;;15.68;61.50;102464.50;5072453;28;19912;-70
2023/05/13 06:24:20;;;;;;;;;;;;;;;15.75;62.56;102465.53;5071470;28;19913;-69
2023/05/13 06:26:46;;;;;;;;;;;;;;;15.81;62.91;102464.06;5072765;28;19913;-69
2023/05/13 06:29:11;;;;;;;;;;;;;;;15.84;62.81;102469.13;5072465;28;19912;-71
2023/05/13 06:31:37;;;;;;;;;;;;;;;15.92;62.12;102468.38;5072415;28;20437;-68
2023/05/13 06:34:02;;;;;;;;;;;;;;;15.99;62.73;102474.81;5072582;28;19956;-69
2023/05/13 06:36:27;;;;;;;;;;;;;;;16.00;60.27;102469.28;5072266;28;19913;-67
2023/05/13 06:38:53;;;;;;;;;;;;;;;16.02;60.93;102467.28;5072134;28;20356;-68
2023/05/13 06:41:18;;;;;;;;;;;;;;;16.09;61.36;102473.69;5072354;28;19947;-68
2023/05/13 06:43:45;;;;;;;;;;;;;;;16.14;61.01;102481.28;5072362;28;20267;-70
2023/05/13 06:46:10;;;;;;;;;;;;;;;16.18;60.85;102469.22;5071553;28;19912;-68
2023/05/13 06:48:36;;;;;;;;;;;;;;;16.25;61.44;102470.28;5072972;28;19922;-71
2023/05/13 06:51:01;;;;;;;;;;;;;;;16.33;62.55;102469.50;5072503;28;19942;-70
2023/05/13 06:53:26;;;;;;;;;;;;;;;16.45;61.51;102470.91;5072333;28;20334;-69
2023/05/13 06:55:52;;;;;;;;;;;;;;;16.54;60.83;102477.19;5071672;28;20628;-70
2023/05/13 06:58:17;;;;;;;;;;;;;;;16.64;59.73;102480.59;5072095;28;19923;-69
2023/05/13 07:00:44;;;;;;;;;;;;;;;16.69;59.72;102479.13;5072268;28;20415;-66
2023/05/13 07:03:10;;;;;;;;;;;;;;;16.76;59.46;102482.00;5073188;28;19916;-69
2023/05/13 07:05:35;;;;;;;;;;;;;;;16.85;59.09;102486.44;5073149;28;19920;-67
2023/05/13 07:08:05;;;;;;;;;;;;;;;16.88;58.89;102486.13;5073546;28;19927;-68
2023/05/13 07:10:31;;;;;;;;;;;;;;;16.78;58.47;102487.25;5072634;28;19919;-69
2023/05/13 07:12:56;;;;;;;;;;;;;;;16.63;59.15;102484.28;5072764;28;19913;-67
2023/05/13 07:15:22;;;;;;;;;;;;;;;16.54;59.44;102487.94;5072992;28;20351;-69
2023/05/13 07:17:48;;;;;;;;;;;;;;;16.44;59.82;102493.41;5071749;28;19912;-68
2023/05/13 07:20:13;;;;;;;;;;;;;;;16.41;60.07;102494.56;5072217;28;19965;-72
2023/05/13 07:22:38;;;;;;;;;;;;;;;16.32;60.40;102498.22;5072246;28;19912;-73
2023/05/13 07:25:04;;;;;;;;;;;;;;;16.19;60.11;102489.75;5071290;28;19912;-71
2023/05/13 07:27:30;;;;;;;;;;;;;;;16.15;60.57;102501.78;5073964;28;20364;-70
2023/05/13 07:29:55;;;;;;;;;;;;;;;16.20;60.95;102504.88;5072002;28;19960;-74
2023/05/13 07:32:21;;;;;;;;;;;;;;;16.22;60.07;102502.03;5070733;28;19999;-69
2023/05/13 07:34:46;;;;;;;;;;;;;;;16.27;60.26;102502.38;5071802;28;19912;-70
2023/05/13 07:37:11;;;;;;;;;;;;;;;16.32;59.43;102500.06;5075860;28;20241;-69
2023/05/13 07:39:36;;;;;;;;;;;;;;;16.30;59.81;102507.44;5075883;28;20270;-67
2023/05/13 07:42:02;;;;;;;;;;;;;;;16.34;59.99;102508.81;5075792;28;20351;-68
2023/05/13 07:44:28;;;;;;;;;;;;;;;16.43;59.24;102502.47;5075916;28;20386;-68
2023/05/13 07:46:54;;;;;;;;;;;;;;;16.45;57.91;102500.47;5075624;28;20062;-69
2023/05/13 07:49:23;;;;;;;;;;;;;;;16.48;57.83;102504.69;5075584;28;20020;-69
2023/05/13 07:51:48;;;;;;;;;;;;;;;16.60;58.40;102503.44;5075498;28;19982;-69
2023/05/13 07:54:13;;;;;;;;;;;;;;;16.70;58.04;102501.50;5075596;28;19948;-68
2023/05/13 07:56:39;;;;;;;;;;;;;;;16.83;57.91;102501.91;5075430;28;20011;-68
2023/05/13 07:59:04;;;;;;;;;;;;;;;16.93;57.54;102505.31;5075351;28;19935;-68
2023/05/13 08:01:29;;;;;;;;;;;;;;;16.91;56.88;102509.16;5075412;28;19912;-68
2023/05/13 08:03:55;;;;;;;;;;;;;;;16.79;57.55;102507.78;5075774;28;19916;-69
2023/05/13 08:06:20;;;;;;;;;;;;;;;16.77;57.32;102515.13;5074864;28;19920;-67
2023/05/13 08:08:45;;;;;;;;;;;;;;;16.86;57.35;102514.19;5075064;28;20237;-68
2023/05/13 08:11:12;;;;;;;;;;;;;;;16.96;57.01;102518.44;5075492;28;19912;-68
2023/05/13 08:13:37;;;;;;;;;;;;;;;17.06;57.23;102523.72;5075096;28;19924;-66
2023/05/13 08:16:03;;;;;;;;;;;;;;;17.10;56.42;102516.16;5074742;28;19935;-68
2023/05/13 08:18:29;;;;;;;;;;;;;;;17.18;56.51;102518.84;5074644;28;20042;-68
2023/05/13 08:20:54;;;;;;;;;;;;;;;17.26;56.33;102521.56;5074887;28;20328;-68
2023/05/13 08:23:20;;;;;;;;;;;;;;;17.24;55.59;102518.19;5075530;28;19916;-69
2023/05/13 08:25:45;;;;;;;;;;;;;;;17.25;55.77;102518.03;5075526;28;19919;-70
2023/05/13 08:28:10;;;;;;;;;;;;;;;17.25;55.24;102519.88;5073305;28;19939;-70
2023/05/13 08:30:39;;;;;;;;;;;;;;;17.23;54.82;102516.50;5074865;28;20288;-69
2023/05/13 08:33:04;;;;;;;;;;;;;;;17.29;54.69;102515.84;5056990;28;19947;-70
2023/05/13 08:35:31;;;;;;;;;;;;;;;17.35;54.92;102520.59;5072192;28;19951;-70
2023/05/13 08:37:56;;;;;;;;;;;;;;;17.43;54.67;102514.38;5067896;28;19919;-70
2023/05/13 08:40:22;;;;;;;;;;;;;;;17.52;53.99;102524.16;5055491;28;19921;-71
2023/05/13 08:42:49;;;;;;;;;;;;;;;17.58;54.22;102521.63;5060163;28;19938;-72
2023/05/13 08:45:16;;;;;;;;;;;;;;;17.61;53.47;102515.91;5067501;28;19920;-72
2023/05/13 08:47:50;;;;;;;;;;;;;;;17.61;53.29;102515.91;5063093;28;19993;-73
2023/05/13 08:50:18;;;;;;;;;;;;;;;17.71;53.06;102525.75;5057285;28;20300;-71
2023/05/13 08:52:44;;;;;;;;;;;;;;;17.78;52.42;102522.22;5060463;28;20334;-70
2023/05/13 08:55:09;;;;;;;;;;;;;;;17.88;52.14;102517.50;5056330;28;19913;-71
2023/05/13 08:57:35;;;;;;;;;;;;;;;17.92;51.04;102523.38;5069185;28;19966;-71
2023/05/13 09:00:01;;;;;;;;;;;;;;;17.98;52.34;102517.34;5074258;28;20011;-68
2023/05/13 09:02:26;;;;;;;;;;;;;;;18.09;51.23;102518.84;5073919;28;19920;-72
2023/05/13 09:04:53;;;;;;;;;;;;;;;18.16;51.25;102515.28;5068831;28;19916;-71
2023/05/13 09:07:19;;;;;;;;;;;;;;;18.30;51.18;102521.88;5059669;28;19913;-72
2023/05/13 09:09:44;;;;;;;;;;;;;;;18.38;49.43;102526.41;5055952;28;19912;-71
2023/05/13 09:12:09;;;;;;;;;;;;;;;18.41;50.11;102520.66;5061139;28;19913;-71
2023/05/13 09:14:36;;;;;;;;;;;;;;;18.46;48.99;102529.06;5093105;28;19936;-71
2023/05/13 09:17:02;;;;;;;;;;;;;;;18.52;48.43;102531.09;5067915;28;19958;-72
2023/05/13 09:19:28;;;;;;;;;;;;;;;18.51;48.87;102524.88;5059540;28;19923;-71
2023/05/13 09:21:53;;;;;;;;;;;;;;;18.58;48.78;102519.63;5056963;28;19913;-70
2023/05/13 09:24:20;;;;;;;;;;;;;;;18.73;47.74;102527.84;5062274;28;20359;-70
2023/05/13 09:26:46;;;;;;;;;;;;;;;18.90;47.35;102523.25;5060802;28;19912;-69
2023/05/13 09:29:15;;;;;;;;;;;;;;;19.04;46.80;102525.22;5057917;28;20027;-72
2023/05/13 09:31:41;;;;;;;;;;;;;;;19.19;45.34;102531.56;5061424;28;19935;-71
2023/05/13 09:34:06;;;;;;;;;;;;;;;19.27;45.95;102525.28;5073671;28;20451;-71
2023/05/13 09:36:32;;;;;;;;;;;;;;;19.42;46.07;102524.34;5070052;28;20371;-71
2023/05/13 09:38:58;;;;;;;;;;;;;;;19.56;45.59;102530.03;5069361;28;19916;-70
2023/05/13 09:41:25;;;;;;;;;;;;;;;19.52;44.76;102517.88;5062337;28;20315;-69
2023/05/13 09:43:51;;;;;;;;;;;;;;;19.39;44.68;102523.88;5053376;28;20352;-70
2023/05/13 09:46:16;;;;;;;;;;;;;;;19.25;45.37;102517.34;5058994;28;19927;-70
2023/05/13 09:48:42;;;;;;;;;;;;;;;19.13;45.84;102529.59;5053683;28;19923;-70
2023/05/13 09:51:07;;;;;;;;;;;;;;;19.04;45.61;102522.50;5057199;28;20014;-70
2023/05/13 09:53:33;;;;;;;;;;;;;;;18.86;45.31;102518.22;5073204;28;19916;-71
2023/05/13 09:56:00;;;;;;;;;;;;;;;18.75;45.47;102520.44;5072890;28;20008;-70
2023/05/13 09:58:27;;;;;;;;;;;;;;;18.76;45.31;102522.13;5057036;28;19917;-70
2023/05/13 10:00:53;;;;;;;;;;;;;;;18.70;45.32;102520.97;5052468;28;19920;-71
2023/05/13 10:03:18;;;;;;;;;;;;;;;18.76;45.71;102516.72;5053218;28;19913;-69
2023/05/13 10:05:44;;;;;;;;;;;;;;;18.80;44.50;102521.63;5051904;28;19917;-72
2023/05/13 10:08:10;;;;;;;;;;;;;;;18.83;45.32;102518.56;5053030;28;20351;-70
2023/05/13 10:10:36;;;;;;;;;;;;;;;18.87;45.33;102525.28;5052631;28;20320;-70
2023/05/13 10:13:03;;;;;;;;;;;;;;;18.92;44.53;102518.53;5052615;28;19919;-71
2023/05/13 10:15:29;;;;;;;;;;;;;;;19.01;45.41;102510.19;5052274;28;19919;-71
2023/05/13 10:17:56;;;;;;;;;;;;;;;19.07;43.57;102514.06;5085064;28;19917;-72
2023/05/13 10:20:22;;;;;;;;;;;;;;;19.13;44.12;102521.47;5052600;28;19919;-70
2023/05/13 10:22:49;;;;;;;;;;;;;;;19.17;44.04;102520.09;5052543;28;19917;-72
2023/05/13 10:25:15;;;;;;;;;;;;;;;19.23;44.10;102508.59;5051590;28;19912;-73
2023/05/13 10:27:41;;;;;;;;;;;;;;;19.27;43.88;102519.88;5052006;28;19958;-72
2023/05/13 10:30:09;;;;;;;;;;;;;;;19.31;44.12;102513.94;5051652;28;19960;-70
2023/05/13 10:32:36;;;;;;;;;;;;;;;19.39;43.36;102519.31;5083947;28;19916;-70
2023/05/13 10:35:06;;;;;;;;;;;;;;;19.40;43.04;102510.19;5057421;28;19912;-69
2023/05/13 10:37:51;;;;;;;;;;;;;;;19.54;42.99;102515.84;5072823;28;19951;-69
2023/05/13 10:40:35;;;;;;;;;;;;;;;19.70;43.48;102518.47;5076150;28;19920;-70
2023/05/13 10:43:01;;;;;;;;;;;;;;;19.76;42.53;102520.44;5072329;28;19912;-70
2023/05/13 10:45:26;;;;;;;;;;;;;;;19.81;43.57;102512.63;5070820;28;19912;-70
2023/05/13 10:47:53;;;;;;;;;;;;;;;20.00;43.61;102519.41;5071666;28;19920;-72
2023/05/13 10:50:23;;;;;;;;;;;;;;;20.17;43.68;102515.50;5103802;28;19916;-71
2023/05/13 10:52:48;;;;;;;;;;;;;;;20.29;42.67;102521.34;5070960;28;19917;-72
2023/05/13 10:55:16;;;;;;;;;;;;;;;20.15;42.46;102524.84;5071776;28;20300;-70
2023/05/13 10:57:41;;;;;;;;;;;;;;;19.93;42.71;102524.69;5062519;28;20027;-69
2023/05/13 11:00:17;;;;;;;;;;;;;;;19.91;42.96;102524.03;5052662;28;20320;-70
2023/05/13 11:02:42;;;;;;;;;;;;;;;19.93;42.40;102524.69;5052395;28;19974;-70
2023/05/13 11:05:08;;;;;;;;;;;;;;;20.04;43.33;102521.56;5051716;28;19913;-73
2023/05/13 11:07:38;;;;;;;;;;;;;;;20.15;42.46;102524.84;5051621;28;19924;-72
2023/05/13 11:10:22;;;;;;;;;;;;;;;20.28;42.14;102525.06;5051234;28;19916;-71
2023/05/13 11:13:07;;;;;;;;;;;;;;;20.34;42.17;102518.91;5056969;28;20275;-70
2023/05/13 11:15:49;;;;;;;;;;;;;;;20.41;42.14;102519.88;5060125;28;19959;-70
2023/05/13 11:18:15;;;;;;;;;;;;;;;20.44;41.46;102522.22;5063671;28;19971;-69
2023/05/13 11:20:43;;;;;;;;;;;;;;;20.43;41.58;102517.84;5076819;28;19912;-71
2023/05/13 11:23:15;;;;;;;;;;;;;;;20.34;41.53;102519.75;5065616;28;20320;-70
2023/05/13 11:25:42;;;;;;;;;;;;;;;20.04;41.99;102532.38;5061559;28;20023;-69
2023/05/13 11:28:07;;;;;;;;;;;;;;;19.83;42.19;102521.38;5056933;28;19917;-68
2023/05/13 11:30:33;;;;;;;;;;;;;;;19.80;42.25;102532.56;5055683;28;20249;-70
2023/05/13 11:33:00;;;;;;;;;;;;;;;19.87;42.17;102538.94;5053767;28;19913;-71
2023/05/13 11:35:30;;;;;;;;;;;;;;;19.98;41.92;102527.72;5054023;28;19913;-69
2023/05/13 11:37:56;;;;;;;;;;;;;;;20.02;41.56;102536.28;5054045;28;20407;-69
2023/05/13 11:40:22;;;;;;;;;;;;;;;20.02;42.03;102529.00;5054621;28;19917;-69
2023/05/13 11:42:47;;;;;;;;;;;;;;;20.04;40.62;102540.50;5053750;28;19924;-68
2023/05/13 11:45:13;;;;;;;;;;;;;;;19.98;39.77;102535.81;5053571;28;19967;-70
2023/05/13 11:47:38;;;;;;;;;;;;;;;19.94;40.29;102528.22;5054779;28;19920;-70
2023/05/13 11:50:25;;;;;;;;;;;;;;;19.93;40.13;102532.78;5055429;28;19971;-71
2023/05/13 11:52:51;;;;;;;;;;;;;;;19.98;40.48;102537.69;5053741;28;19917;-69
2023/05/13 11:55:23;;;;;;;;;;;;;;;20.01;40.53;102540.84;5055041;28;20284;-72
2023/05/13 11:57:49;;;;;;;;;;;;;;;20.03;40.47;102536.09;5073818;28;19913;-70
2023/05/13 12:00:14;;;;;;;;;;;;;;;20.09;39.88;102543.47;5075977;28;20014;-71
2023/05/13 12:02:40;;;;;;;;;;;;;;;20.13;40.20;102537.72;5075292;28;19939;-72
2023/05/13 12:05:06;;;;;;;;;;;;;;;20.15;40.08;102535.66;5075272;28;19913;-70
2023/05/13 12:07:34;;;;;;;;;;;;;;;20.16;39.37;102532.78;5075206;28;19927;-71
2023/05/13 12:10:00;;;;;;;;;;;;;;;20.14;39.76;102528.56;5074646;28;19912;-71
2023/05/13 12:12:27;;;;;;;;;;;;;;;20.06;39.36;102533.03;5074798;28;19912;-71
2023/05/13 12:14:54;;;;;;;;;;;;;;;19.94;39.90;102534.47;5075243;28;19913;-71
2023/05/13 12:17:20;;;;;;;;;;;;;;;19.92;39.71;102524.84;5074976;28;19912;-71
2023/05/13 12:20:04;;;;;;;;;;;;;;;19.94;39.92;102526.34;5074777;28;19912;-72
2023/05/13 12:22:29;;;;;;;;;;;;;;;19.71;40.08;102536.38;5073627;28;19956;-70
2023/05/13 12:24:54;;;;;;;;;;;;;;;19.50;40.77;102527.00;5074950;28;20025;-71
2023/05/13 12:27:20;;;;;;;;;;;;;;;19.34;40.60;102535.19;5107539;28;19919;-71
2023/05/13 12:29:46;;;;;;;;;;;;;;;19.30;40.71;102547.38;5074911;28;19912;-71
2023/05/13 12:32:15;;;;;;;;;;;;;;;19.17;40.89;102531.75;5074697;28;20433;-73
2023/05/13 12:34:46;;;;;;;;;;;;;;;19.10;41.23;102527.22;5074499;28;19919;-72